Time;durP1;ratioP1;P1;durP2;ratioP2;P2;SDS_P1;SDS_P2;PMS_P1;PMS_P2;Temp;Humidity;BMP_temperature;BMP_pressure;BME280_temperature;BME280_humidity;BME280_pressure;Samples;Min_cycle;Max_cycle;Signal;HPM_P1;HPM_P2
2023/06/09 00:00:49;;;;;;;0.65;0.50;;;;;;;17.85;57.32;101686.13;5087390;28;20047;-78
2023/06/09 00:03:21;;;;;;;0.00;0.00;;;;;;;17.82;58.07;101679.06;5090433;28;20005;-77
2023/06/09 00:05:48;;;;;;;0.10;0.10;;;;;;;17.77;58.29;101679.25;5089861;28;20066;-76
2023/06/09 00:08:14;;;;;;;0.00;0.00;;;;;;;17.76;57.84;101677.47;5087596;28;20036;-77
2023/06/09 00:10:41;;;;;;;1.23;0.98;;;;;;;17.74;58.35;101673.97;5089183;28;20021;-76
2023/06/09 00:13:09;;;;;;;0.10;0.10;;;;;;;17.72;57.72;101673.19;5088121;28;20929;-77
2023/06/09 00:15:35;;;;;;;0.93;0.13;;;;;;;17.70;57.35;101672.34;5084926;28;20076;-77
2023/06/09 00:18:02;;;;;;;0.08;0.08;;;;;;;17.61;58.21;101665.53;5082690;28;20024;-78
2023/06/09 00:20:33;;;;;;;0.00;0.00;;;;;;;17.56;58.36;101662.13;5082322;28;20021;-78
2023/06/09 00:23:00;;;;;;;0.10;0.10;;;;;;;17.54;57.98;101655.09;5082499;28;20029;-77
2023/06/09 00:25:26;;;;;;;0.00;0.00;;;;;;;17.51;58.62;101650.72;5077866;28;20040;-76
2023/06/09 00:27:52;;;;;;;0.00;0.00;;;;;;;17.48;58.02;101656.16;5079809;28;20071;-76
2023/06/09 00:30:22;;;;;;;0.05;0.05;;;;;;;17.46;57.58;101652.69;5081030;28;20021;-77
2023/06/09 00:32:48;;;;;;;0.15;0.15;;;;;;;17.41;58.60;101655.53;5081949;28;20021;-77
2023/06/09 00:35:14;;;;;;;0.00;0.00;;;;;;;17.36;59.14;101656.59;5081871;28;20039;-77
2023/06/09 00:37:40;;;;;;;0.20;0.20;;;;;;;17.36;58.91;101657.50;5081582;28;20024;-78
2023/06/09 00:40:07;;;;;;;0.00;0.00;;;;;;;17.35;58.59;101663.78;5083970;28;20040;-78
2023/06/09 00:42:33;;;;;;;0.70;0.70;;;;;;;17.34;58.32;101656.66;5085459;28;20035;-78
2023/06/09 00:45:00;;;;;;;0.10;0.10;;;;;;;17.31;59.21;101654.13;5085495;28;20029;-78
2023/06/09 00:47:26;;;;;;;0.10;0.10;;;;;;;17.31;58.32;101654.13;5084251;28;20025;-79
2023/06/09 00:49:53;;;;;;;0.00;0.00;;;;;;;17.30;58.19;101657.72;5083040;28;20035;-79
2023/06/09 00:52:20;;;;;;;0.10;0.10;;;;;;;17.27;58.22;101653.34;5080058;28;20028;-77
2023/06/09 00:54:46;;;;;;;0.03;0.03;;;;;;;17.25;58.85;101654.31;5085785;28;20028;-77
2023/06/09 00:57:13;;;;;;;0.00;0.00;;;;;;;17.25;58.56;101659.69;5077861;28;20028;-77
2023/06/09 00:59:40;;;;;;;0.00;0.00;;;;;;;17.22;59.03;101655.31;5080358;28;20562;-78
2023/06/09 01:02:07;;;;;;;1.25;1.25;;;;;;;17.21;59.13;101656.25;5092721;28;20016;-77
2023/06/09 01:04:35;;;;;;;0.10;0.10;;;;;;;17.18;59.21;101652.78;5088781;28;20055;-76
2023/06/09 01:09:49;;;;;;;0.00;0.00;;;;;;;17.14;59.26;101652.88;5057205;28;20428;-78
2023/06/09 01:12:58;;;;;;;0.10;0.10;;;;;;;17.17;59.27;101651.94;5050311;28;20033;-77
2023/06/09 01:15:31;;;;;;;0.00;0.00;;;;;;;17.09;59.50;101649.50;5052917;28;20025;-79
2023/06/09 01:18:02;;;;;;;0.77;0.77;;;;;;;17.06;59.15;101646.03;5058191;28;20075;-79
2023/06/09 01:23:53;;;;;;;0.10;0.10;;;;;;;17.04;59.45;101646.09;5105644;27;1210627;-78
2023/06/09 01:26:20;;;;;;;0.00;0.00;;;;;;;16.93;59.86;101637.56;5132272;28;20039;-78
2023/06/09 01:28:47;;;;;;;0.00;0.00;;;;;;;16.91;59.26;101644.72;5141084;28;20034;-77
2023/06/09 01:31:15;;;;;;;0.00;0.00;;;;;;;16.87;59.22;101648.44;5142950;28;20088;-76
2023/06/09 01:33:43;;;;;;;0.00;0.00;;;;;;;16.82;58.90;101641.47;5140728;27;20061;-77
2023/06/09 01:36:10;;;;;;;0.80;0.75;;;;;;;16.78;60.01;101649.63;5138193;27;20030;-77
2023/06/09 01:38:37;;;;;;;0.00;0.00;;;;;;;16.75;59.50;101647.94;5136824;28;20084;-76
2023/06/09 01:41:04;;;;;;;2.38;1.17;;;;;;;16.73;60.04;101647.09;5135214;27;20023;-77
2023/06/09 01:43:30;;;;;;;0.00;0.00;;;;;;;16.66;61.01;101640.22;5135795;28;20031;-77
2023/06/09 01:45:56;;;;;;;0.00;0.00;;;;;;;16.68;59.83;101643.69;5134862;28;20051;-78
2023/06/09 01:48:48;;;;;;;0.05;0.05;;;;;;;16.68;60.79;101640.16;5136438;27;20027;-78
2023/06/09 01:51:39;;;;;;;0.10;0.10;;;;;;;16.64;59.88;101631.34;5138986;27;20023;-78
2023/06/09 01:54:10;;;;;;;0.75;0.75;;;;;;;16.62;59.94;101630.53;5130030;27;20046;-78
2023/06/09 01:56:43;;;;;;;0.10;0.10;;;;;;;16.60;61.42;101632.41;5136529;28;20064;-78
2023/06/09 01:59:15;;;;;;;0.10;0.10;;;;;;;16.61;60.45;101618.06;5136926;28;20475;-79
2023/06/09 02:01:43;;;;;;;;;;;;;;;16.71;59.95;101611.50;5135093;28;20034;-77
2023/06/09 02:04:13;;;;;;;0.10;0.10;;;;;;;16.63;59.79;101613.56;5132009;28;19915;-77
2023/06/09 02:06:41;;;;;;;0.00;0.00;;;;;;;16.59;60.27;101630.63;5123619;27;20027;-77
2023/06/09 02:09:09;;;;;;;0.00;0.00;;;;;;;16.57;60.21;101630.66;5131587;27;20028;-77
2023/06/09 02:11:35;;;;;;;0.00;0.00;;;;;;;16.54;61.03;101627.25;5129199;27;20029;-77
2023/06/09 02:14:01;;;;;;;0.08;0.08;;;;;;;16.52;60.81;101626.41;5128225;28;20045;-77
2023/06/09 02:16:27;;;;;;;0.00;0.00;;;;;;;16.44;62.09;101630.19;5127694;28;20031;-77
2023/06/09 02:18:55;;;;;;;0.08;0.08;;;;;;;16.47;60.69;101622.09;5128206;28;20434;-76
2023/06/09 02:21:22;;;;;;;0.10;0.10;;;;;;;16.46;60.13;101624.78;5127995;27;20174;-76
2023/06/09 02:23:48;;;;;;;0.00;0.00;;;;;;;16.42;60.98;101610.63;5126448;27;20027;-77
2023/06/09 02:26:15;;;;;;;0.10;0.10;;;;;;;16.39;61.60;101621.44;5132250;28;20023;-74
2023/06/09 02:28:41;;;;;;;0.00;0.00;;;;;;;16.38;61.22;101619.69;5132936;28;20484;-77
2023/06/09 02:31:07;;;;;;;0.10;0.10;;;;;;;16.37;60.84;101620.63;5131782;28;20039;-77
2023/06/09 02:33:34;;;;;;;0.05;0.05;;;;;;;16.37;60.93;101617.94;5125945;27;20035;-78
2023/06/09 02:36:00;;;;;;;0.10;0.10;;;;;;;16.37;60.52;101617.94;5116938;28;20093;-77
2023/06/09 02:38:26;;;;;;;0.00;0.00;;;;;;;16.36;60.92;101621.53;5117666;28;20035;-77
2023/06/09 02:40:52;;;;;;;0.10;0.10;;;;;;;16.36;60.29;101615.31;5109951;28;20035;-78
2023/06/09 02:43:18;;;;;;;0.28;0.28;;;;;;;16.33;61.06;101622.50;5118154;28;20023;-77
2023/06/09 02:45:46;;;;;;;0.10;0.10;;;;;;;16.33;60.87;101617.16;5116595;28;20084;-75
2023/06/09 02:48:15;;;;;;;0.10;0.10;;;;;;;16.32;60.94;101617.22;5116386;28;20093;-77
2023/06/09 02:50:41;;;;;;;0.00;0.00;;;;;;;16.31;60.19;101612.78;5117333;28;20427;-76
2023/06/09 02:53:07;;;;;;;0.03;0.03;;;;;;;16.27;61.37;101606.66;5116087;28;20093;-77
2023/06/09 02:55:33;;;;;;;0.10;0.10;;;;;;;16.24;59.98;101605.91;5114276;28;20051;-77
2023/06/09 02:58:00;;;;;;;0.00;0.00;;;;;;;16.22;60.56;101610.41;5114301;28;20489;-77
2023/06/09 03:00:26;;;;;;;0.10;0.10;;;;;;;16.20;60.75;101605.13;5115336;28;20050;-77
2023/06/09 03:02:52;;;;;;;0.32;0.32;;;;;;;16.18;61.31;101610.50;5116377;28;20023;-77
2023/06/09 03:05:20;;;;;;;0.20;0.20;;;;;;;16.18;60.75;101605.16;5114612;28;20099;-76
2023/06/09 03:07:48;;;;;;;0.00;0.00;;;;;;;16.18;60.67;101605.16;5115155;27;20034;-77
2023/06/09 03:10:14;;;;;;;0.90;0.90;;;;;;;16.17;60.75;101605.19;5112325;28;20053;-78
2023/06/09 03:12:40;;;;;;;0.00;0.00;;;;;;;16.15;60.66;101607.94;5116542;28;20020;-77
2023/06/09 03:15:07;;;;;;;0.00;0.00;;;;;;;16.13;60.81;101608.91;5112995;28;20031;-75
2023/06/09 03:17:34;;;;;;;0.10;0.10;;;;;;;16.09;61.09;101609.94;5112846;28;20514;-76
2023/06/09 03:20:00;;;;;;;0.10;0.10;;;;;;;16.08;60.66;101617.06;5112173;28;20496;-76
2023/06/09 03:22:27;;;;;;;0.00;0.00;;;;;;;16.05;60.71;101610.94;5111907;28;20020;-76
2023/06/09 03:24:53;;;;;;;0.10;0.10;;;;;;;16.05;60.55;101609.16;5110968;27;20202;-76
2023/06/09 03:27:19;;;;;;;0.00;0.00;;;;;;;16.04;60.77;101610.06;5111891;28;20106;-76
2023/06/09 03:29:45;;;;;;;0.00;0.00;;;;;;;16.04;60.23;101618.09;5113298;28;20104;-75
2023/06/09 03:32:11;;;;;;;0.17;0.17;;;;;;;16.02;60.22;101614.56;5112760;28;20083;-76
2023/06/09 03:34:40;;;;;;;0.10;0.10;;;;;;;16.00;60.87;101619.97;5112543;28;20035;-76
2023/06/09 03:37:09;;;;;;;0.10;0.10;;;;;;;16.02;60.47;101611.91;5108067;28;20019;-76
2023/06/09 03:39:36;;;;;;;0.10;0.10;;;;;;;16.03;60.42;101624.34;5106688;28;20035;-77
2023/06/09 03:42:02;;;;;;;0.10;0.10;;;;;;;16.01;60.54;101607.47;5112415;28;20032;-76
2023/06/09 03:44:28;;;;;;;0.10;0.10;;;;;;;15.98;60.25;101608.44;5112295;28;20032;-77
2023/06/09 03:46:54;;;;;;;0.10;0.10;;;;;;;16.00;59.79;101611.09;5110719;28;20026;-77
2023/06/09 03:49:21;;;;;;;0.10;0.10;;;;;;;15.96;60.67;101612.97;5112619;28;20080;-77
2023/06/09 03:51:47;;;;;;;0.10;0.10;;;;;;;15.95;60.18;101613.00;5112507;28;20030;-77
2023/06/09 03:54:13;;;;;;;0.20;0.20;;;;;;;15.94;60.32;101609.47;5106078;28;20047;-77
2023/06/09 03:56:39;;;;;;;0.10;0.10;;;;;;;15.95;60.21;101613.00;5112078;28;20055;-77
2023/06/09 03:59:05;;;;;;;0.63;0.63;;;;;;;15.97;60.10;101613.84;5113685;28;20035;-77
2023/06/09 04:01:31;;;;;;;0.40;0.40;;;;;;;15.95;59.97;101602.31;5113153;28;20032;-77
2023/06/09 04:03:58;;;;;;;0.10;0.10;;;;;;;15.92;60.19;101610.44;5112953;28;20073;-75
2023/06/09 04:06:24;;;;;;;0.45;0.45;;;;;;;15.93;59.61;101599.69;5110215;28;20044;-76
2023/06/09 04:08:51;;;;;;;0.30;0.30;;;;;;;15.92;59.68;101613.09;5113063;28;20404;-75
2023/06/09 04:11:17;;;;;;;0.10;0.10;;;;;;;15.92;59.66;101607.75;5115655;28;20111;-77
2023/06/09 04:13:43;;;;;;;0.00;0.00;;;;;;;15.89;59.49;101605.16;5115007;28;20054;-77
2023/06/09 04:16:10;;;;;;;0.05;0.05;;;;;;;15.84;59.92;101603.53;5113697;28;20389;-77
2023/06/09 04:18:36;;;;;;;0.10;0.10;;;;;;;15.83;59.32;101603.56;5113080;28;20064;-75
2023/06/09 04:21:02;;;;;;;0.10;0.10;;;;;;;15.82;59.53;101605.34;5114440;28;20031;-76
2023/06/09 04:23:28;;;;;;;0.08;0.08;;;;;;;15.83;59.76;101600.91;5113591;28;20505;-76
2023/06/09 04:25:54;;;;;;;0.08;0.08;;;;;;;15.81;59.97;101614.28;5116695;28;20034;-75
2023/06/09 04:28:21;;;;;;;0.10;0.10;;;;;;;15.85;59.81;101615.97;5121568;28;20030;-77
2023/06/09 04:30:49;;;;;;;0.10;0.10;;;;;;;15.87;59.83;101620.38;5115893;28;20031;-77
2023/06/09 04:33:15;;;;;;;0.00;0.00;;;;;;;15.91;59.76;101616.69;5116224;28;20030;-77
2023/06/09 04:35:41;;;;;;;0.10;0.10;;;;;;;15.94;60.18;101613.94;5113108;28;20122;-77
2023/06/09 04:38:09;;;;;;;0.10;0.10;;;;;;;15.97;59.75;101621.84;5104766;27;20042;-77
2023/06/09 04:40:37;;;;;;;0.10;0.10;;;;;;;15.96;60.22;101628.13;5115558;28;20023;-77
2023/06/09 04:43:05;;;;;;;0.00;0.00;;;;;;;16.00;60.27;101627.13;5114773;28;20031;-77
2023/06/09 04:45:34;;;;;;;0.15;0.15;;;;;;;16.04;59.89;101620.75;5112441;28;20076;-77
2023/06/09 04:48:01;;;;;;;0.10;0.10;;;;;;;16.06;59.57;101621.56;5117507;28;20019;-74
2023/06/09 04:50:29;;;;;;;0.15;0.15;;;;;;;16.07;60.06;101623.31;5117895;28;20034;-77
2023/06/09 04:52:57;;;;;;;0.10;0.10;;;;;;;16.11;59.97;101626.78;5109875;28;20028;-77
2023/06/09 04:55:25;;;;;;;0.00;0.00;;;;;;;16.14;59.90;101624.88;5111503;28;20057;-77
2023/06/09 04:57:56;;;;;;;0.10;0.10;;;;;;;16.17;60.29;101621.25;5112356;28;20114;-78
2023/06/09 05:00:26;;;;;;;0.30;0.30;;;;;;;16.22;60.12;101623.78;5113240;28;20032;-77
2023/06/09 05:02:54;;;;;;;0.10;0.10;;;;;;;16.25;59.73;101623.66;5112181;28;20057;-77
2023/06/09 05:05:21;;;;;;;1.25;1.10;;;;;;;16.25;59.97;101629.91;5116701;28;20031;-77
2023/06/09 05:07:47;;;;;;;0.65;0.65;;;;;;;16.29;59.63;101620.00;5108804;28;20113;-78
2023/06/09 05:10:13;;;;;;;0.10;0.10;;;;;;;16.31;59.52;101628.81;5114141;28;20016;-77
2023/06/09 05:12:40;;;;;;;0.00;0.00;;;;;;;16.38;59.77;101632.19;5111754;28;20107;-77
2023/06/09 05:15:06;;;;;;;0.65;0.65;;;;;;;16.45;59.10;101629.28;5109159;28;20032;-77
2023/06/09 05:17:34;;;;;;;0.35;0.35;;;;;;;16.48;59.60;101628.31;5111710;28;20024;-77
2023/06/09 05:20:00;;;;;;;0.08;0.08;;;;;;;16.52;59.75;101632.63;5112129;28;20053;-77
2023/06/09 05:22:27;;;;;;;0.30;0.30;;;;;;;16.59;59.32;101630.63;5110427;28;20063;-77
2023/06/09 05:24:53;;;;;;;0.00;0.00;;;;;;;16.63;59.40;101637.63;5114002;28;20027;-75
2023/06/09 05:27:19;;;;;;;0.10;0.10;;;;;;;16.66;59.10;101634.88;5112690;28;20036;-75
2023/06/09 05:29:45;;;;;;;0.10;0.10;;;;;;;16.70;59.01;101625.81;5111278;28;20103;-76
2023/06/09 05:32:11;;;;;;;0.10;0.10;;;;;;;16.72;59.26;101644.47;5112865;28;20016;-76
2023/06/09 05:34:37;;;;;;;0.00;0.00;;;;;;;16.77;59.05;101638.06;5111468;28;20493;-77
2023/06/09 05:37:04;;;;;;;0.20;0.20;;;;;;;16.82;58.69;101635.22;5112886;28;20027;-77
2023/06/09 05:39:30;;;;;;;0.10;0.10;;;;;;;16.86;59.45;101635.97;5111327;28;20124;-77
2023/06/09 05:41:56;;;;;;;0.52;0.52;;;;;;;16.92;59.13;101630.44;5115144;28;20023;-77
2023/06/09 05:44:23;;;;;;;0.63;0.63;;;;;;;16.96;59.38;101632.13;5114866;28;20051;-77
2023/06/09 05:46:49;;;;;;;1.98;0.55;;;;;;;17.06;58.84;101633.53;5105541;28;20516;-75
2023/06/09 05:49:16;;;;;;;0.05;0.05;;;;;;;17.10;59.39;101635.19;5111819;28;20047;-77
2023/06/09 05:51:42;;;;;;;0.10;0.10;;;;;;;17.18;58.63;101634.03;5111307;28;20106;-76
2023/06/09 05:54:09;;;;;;;0.28;0.28;;;;;;;17.22;59.35;101638.34;5108355;28;20167;-77
2023/06/09 05:56:37;;;;;;;0.35;0.35;;;;;;;17.27;59.12;101631.03;5112887;28;20578;-75
2023/06/09 05:59:04;;;;;;;0.00;0.00;;;;;;;17.34;58.75;101632.56;5112444;28;20573;-77
2023/06/09 06:01:32;;;;;;;0.10;0.10;;;;;;;17.38;59.05;101631.50;5104240;28;20075;-77
2023/06/09 06:03:58;;;;;;;0.20;0.20;;;;;;;17.44;58.84;101628.63;5113935;28;20035;-79
2023/06/09 06:06:25;;;;;;;0.00;0.00;;;;;;;17.53;58.69;101626.53;5115564;28;20030;-77
2023/06/09 06:08:51;;;;;;;0.10;0.10;;;;;;;17.60;58.58;101628.06;5108506;28;20024;-78
2023/06/09 06:11:17;;;;;;;3.95;3.00;;;;;;;17.69;58.33;101626.84;5105228;28;20024;-76
2023/06/09 06:13:44;;;;;;;0.65;0.13;;;;;;;17.74;58.08;101631.09;5102921;28;20032;-76
2023/06/09 06:16:10;;;;;;;0.10;0.10;;;;;;;17.81;57.91;101626.38;5093553;28;20034;-76
2023/06/09 06:18:36;;;;;;;0.15;0.15;;;;;;;17.88;58.09;101637.75;5121716;28;20107;-76
2023/06/09 06:21:02;;;;;;;0.00;0.00;;;;;;;17.96;58.08;101635.69;5122174;28;20030;-78
2023/06/09 06:23:28;;;;;;;0.90;0.90;;;;;;;18.06;58.33;101633.53;5116910;28;20069;-76
2023/06/09 06:25:54;;;;;;;0.00;0.00;;;;;;;18.14;58.58;101627.84;5119643;28;20081;-77
2023/06/09 06:28:21;;;;;;;0.10;0.10;;;;;;;18.21;58.37;101629.38;5127323;27;20028;-78
2023/06/09 06:30:47;;;;;;;0.32;0.32;;;;;;;18.32;57.86;101637.88;5126507;28;20055;-79
2023/06/09 06:33:15;;;;;;;0.10;0.10;;;;;;;18.31;57.74;101630.75;5122695;28;20027;-78
2023/06/09 06:35:41;;;;;;;0.10;0.10;;;;;;;18.43;57.47;101632.94;5124504;28;20031;-78
2023/06/09 06:38:07;;;;;;;0.10;0.10;;;;;;;18.55;57.70;101638.72;5120457;28;20035;-78
2023/06/09 06:40:33;;;;;;;0.85;0.85;;;;;;;18.55;57.75;101636.91;5120892;28;20038;-77
2023/06/09 06:42:59;;;;;;;0.10;0.10;;;;;;;18.70;57.27;101638.09;5118428;28;20035;-77
2023/06/09 06:45:26;;;;;;;0.57;0.57;;;;;;;18.76;56.98;101627.09;5117618;27;20039;-78
2023/06/09 06:47:53;;;;;;;0.10;0.10;;;;;;;18.84;57.00;101628.59;5122880;28;20019;-76
2023/06/09 06:50:20;;;;;;;0.10;0.10;;;;;;;18.91;56.90;101630.13;5118932;28;20051;-77
2023/06/09 06:52:48;;;;;;;0.10;0.10;;;;;;;19.03;57.09;101631.41;5114987;28;20016;-76
2023/06/09 06:55:14;;;;;;;0.20;0.20;;;;;;;19.12;57.16;101627.47;5118142;28;20691;-77
2023/06/09 06:57:40;;;;;;;0.00;0.00;;;;;;;19.20;56.92;101618.13;5124140;27;20030;-76
2023/06/09 07:00:09;;;;;;;0.10;0.10;;;;;;;19.29;57.01;101629.38;5127445;28;20024;-77
2023/06/09 07:02:35;;;;;;;0.40;0.40;;;;;;;19.37;56.58;101622.72;5126628;27;20073;-79
2023/06/09 07:05:02;;;;;;;0.10;0.10;;;;;;;19.48;56.53;101624.09;5124927;28;20039;-79
2023/06/09 07:07:28;;;;;;;0.10;0.10;;;;;;;19.61;56.10;101627.94;5123750;27;20020;-76
2023/06/09 07:09:54;;;;;;;1.35;0.80;;;;;;;19.67;56.26;101627.66;5124642;28;20086;-75
2023/06/09 07:12:21;;;;;;;0.40;0.40;;;;;;;19.79;55.98;101633.41;5126480;28;20035;-76
2023/06/09 07:14:47;;;;;;;0.10;0.10;;;;;;;19.87;55.99;101629.44;5116704;28;20034;-77
2023/06/09 07:17:14;;;;;;;0.10;0.10;;;;;;;19.97;56.05;101626.34;5114820;28;20023;-77
2023/06/09 07:19:40;;;;;;;0.47;0.32;;;;;;;20.08;55.59;101631.22;5119995;28;20042;-78
2023/06/09 07:22:06;;;;;;;0.20;0.20;;;;;;;20.16;55.49;101626.34;5114853;28;20023;-77
2023/06/09 07:24:32;;;;;;;0.10;0.10;;;;;;;20.22;55.50;101626.03;5113993;27;20408;-77
2023/06/09 07:26:58;;;;;;;0.10;0.10;;;;;;;20.33;55.32;101625.53;5115452;28;20076;-77
2023/06/09 07:29:24;;;;;;;0.30;0.30;;;;;;;20.42;55.26;101626.91;5117232;28;20031;-78
2023/06/09 07:31:50;;;;;;;0.10;0.10;;;;;;;20.50;54.96;101630.97;5116592;28;20024;-77
2023/06/09 07:34:17;;;;;;;0.55;0.55;;;;;;;20.58;54.87;101627.88;5111332;28;20627;-78
2023/06/09 07:36:43;;;;;;;0.35;0.35;;;;;;;20.69;55.09;101636.28;5115986;27;20024;-76
2023/06/09 07:39:09;;;;;;;0.32;0.32;;;;;;;20.79;54.77;101625.09;5117387;28;20043;-75
2023/06/09 07:41:35;;;;;;;0.40;0.40;;;;;;;20.88;54.34;101624.63;5125587;28;20082;-75
2023/06/09 07:44:01;;;;;;;0.10;0.10;;;;;;;20.93;54.23;101624.41;5123771;28;20047;-76
2023/06/09 07:46:28;;;;;;;0.32;0.32;;;;;;;21.05;54.23;101614.78;5120009;28;20031;-76
2023/06/09 07:48:54;;;;;;;0.40;0.40;;;;;;;21.14;54.87;101622.41;5114592;28;20604;-77
2023/06/09 07:51:21;;;;;;;0.43;0.43;;;;;;;21.23;54.15;101624.59;5115247;28;20073;-77
2023/06/09 07:53:47;;;;;;;0.40;0.40;;;;;;;21.38;54.26;101622.06;5111968;28;20031;-77
2023/06/09 07:56:13;;;;;;;0.10;0.10;;;;;;;21.44;54.60;101624.44;5124262;28;20087;-80
2023/06/09 07:58:40;;;;;;;0.10;0.10;;;;;;;21.47;54.03;101622.44;5128345;28;20050;-82
2023/06/09 08:01:06;;;;;;;0.20;0.20;;;;;;;21.60;53.42;101628.06;5124580;28;20027;-79
2023/06/09 08:03:34;;;;;;;0.20;0.20;;;;;;;21.74;54.00;101626.47;5123904;28;20039;-77
2023/06/09 08:06:01;;;;;;;0.38;0.38;;;;;;;21.82;53.88;101621.53;5124831;28;20047;-78
2023/06/09 08:08:31;;;;;;;0.20;0.20;;;;;;;21.89;53.60;101624.75;5128634;28;20232;-76
2023/06/09 08:10:58;;;;;;;0.57;0.57;;;;;;;21.95;53.65;101622.56;5127898;28;20031;-79
2023/06/09 08:13:24;;;;;;;0.20;0.20;;;;;;;22.09;53.44;101623.63;5126243;28;20037;-78
2023/06/09 08:15:50;;;;;;;1.58;1.48;;;;;;;22.19;53.17;101614.03;5124456;28;20020;-79
2023/06/09 08:18:16;;;;;;;0.10;0.10;;;;;;;22.23;52.63;101607.53;5117899;28;20031;-79
2023/06/09 08:20:43;;;;;;;0.45;0.45;;;;;;;22.38;52.99;101607.63;5124707;28;20088;-79
2023/06/09 08:23:09;;;;;;;0.10;0.10;;;;;;;22.49;52.98;101605.16;5123893;28;20036;-79
2023/06/09 08:25:36;;;;;;;1.45;1.35;;;;;;;22.53;52.44;101600.47;5115562;28;20032;-77
2023/06/09 08:28:02;;;;;;;0.25;0.25;;;;;;;22.68;52.17;101593.28;5124632;28;20053;-77
2023/06/09 08:30:28;;;;;;;0.35;0.35;;;;;;;22.75;53.39;101600.97;5117315;28;20515;-78
2023/06/09 08:32:55;;;;;;;0.10;0.10;;;;;;;22.94;52.58;101605.22;5120890;28;20071;-78
2023/06/09 08:35:21;;;;;;;0.20;0.20;;;;;;;23.08;52.12;101607.13;5122851;28;20032;-78
2023/06/09 08:37:47;;;;;;;0.10;0.10;;;;;;;23.16;51.54;101599.41;5123406;28;20079;-79
2023/06/09 08:40:14;;;;;;;0.17;0.17;;;;;;;23.27;51.72;101601.47;5115594;28;20023;-79
2023/06/09 08:42:42;;;;;;;0.30;0.30;;;;;;;23.36;51.89;101603.59;5120015;27;20568;-77
2023/06/09 08:45:09;;;;;;;1.05;0.95;;;;;;;23.42;51.25;101594.25;5121071;28;20049;-77
2023/06/09 08:47:36;;;;;;;0.70;0.70;;;;;;;23.56;51.77;101602.38;5119341;28;20492;-79
2023/06/09 08:50:05;;;;;;;1.95;1.55;;;;;;;23.72;51.52;101598.69;5120180;28;20038;-79
2023/06/09 08:52:32;;;;;;;0.13;0.13;;;;;;;23.80;50.58;101603.59;5125322;28;20027;-79
2023/06/09 08:54:59;;;;;;;0.30;0.30;;;;;;;23.92;50.66;101612.81;5119166;28;20047;-79
2023/06/09 08:57:26;;;;;;;0.10;0.10;;;;;;;24.04;50.23;101601.19;5121248;28;20028;-79
2023/06/09 08:59:53;;;;;;;0.10;0.10;;;;;;;24.12;49.79;101603.41;5122612;28;20053;-79
2023/06/09 09:02:19;;;;;;;3.22;1.25;;;;;;;24.21;51.21;101598.25;5120079;28;20036;-79
2023/06/09 09:04:46;;;;;;;0.30;0.30;;;;;;;24.36;51.63;101595.47;5121009;28;20083;-78
2023/06/09 09:07:13;;;;;;;0.15;0.15;;;;;;;24.50;50.29;101595.44;5112296;28;20034;-79
2023/06/09 09:09:40;;;;;;;1.33;1.23;;;;;;;24.60;50.66;101602.94;5115568;28;20043;-79
2023/06/09 09:12:12;;;;;;;0.25;0.25;;;;;;;24.74;50.15;101591.22;5120017;28;20051;-79
2023/06/09 09:14:40;;;;;;;1.75;1.20;;;;;;;24.82;49.50;101584.28;5121126;28;20031;-79
2023/06/09 09:17:09;;;;;;;0.68;0.68;;;;;;;24.90;49.10;101593.72;5119257;28;20054;-79
2023/06/09 09:19:37;;;;;;;0.10;0.10;;;;;;;24.99;48.52;101587.66;5119273;28;20132;-79
2023/06/09 09:22:07;;;;;;;0.13;0.13;;;;;;;25.13;48.54;101590.25;5118304;28;20028;-79
2023/06/09 09:24:34;;;;;;;0.40;0.40;;;;;;;25.24;49.40;101586.81;5118765;28;20056;-79
2023/06/09 09:27:01;;;;;;;2.00;1.20;;;;;;;25.31;48.73;101587.22;5118542;28;20028;-78
2023/06/09 09:29:28;;;;;;;0.20;0.20;;;;;;;25.44;49.06;101580.00;5115779;28;20028;-77
2023/06/09 09:31:58;;;;;;;2.30;0.40;;;;;;;25.60;48.50;101576.19;5125619;28;20031;-78
2023/06/09 09:34:26;;;;;;;0.40;0.40;;;;;;;25.71;47.35;101579.00;5117515;28;20068;-79
2023/06/09 09:36:55;;;;;;;0.20;0.20;;;;;;;25.89;46.81;101573.19;5106061;28;20119;-78
2023/06/09 09:39:22;;;;;;;0.10;0.10;;;;;;;25.99;47.90;101576.97;5108225;28;20118;-78
2023/06/09 09:42:07;;;;;;;0.45;0.45;;;;;;;26.19;46.95;101570.06;5112890;28;20035;-77
2023/06/09 09:44:42;;;;;;;0.17;0.17;;;;;;;26.30;47.53;101578.28;5115814;28;20107;-78
2023/06/09 09:47:12;;;;;;;0.20;0.20;;;;;;;26.29;46.28;101571.13;5116389;28;20410;-78
2023/06/09 09:52:28;;;;;;;0.20;0.20;;;;;;;26.50;47.85;101566.91;5164288;27;20389;-77
2023/06/09 09:54:56;;;;;;;0.30;0.30;;;;;;;26.59;46.18;101558.03;5153249;27;20031;-76
2023/06/09 09:57:28;;;;;;;0.22;0.22;;;;;;;26.82;46.42;101567.16;5166668;27;20488;-79
2023/06/09 09:59:55;;;;;;;0.75;0.75;;;;;;;26.93;46.81;101572.63;5159822;27;20069;-79
2023/06/09 10:02:25;;;;;;;0.13;0.13;;;;;;;27.08;45.86;101572.44;5160784;27;20034;-78
2023/06/09 10:04:53;;;;;;;0.43;0.43;;;;;;;27.12;44.84;101574.75;5169088;27;20074;-79
2023/06/09 10:07:21;;;;;;;9.43;0.80;;;;;;;27.17;44.92;101566.25;5157887;27;20037;-79
2023/06/09 10:09:51;;;;;;;1.15;1.15;;;;;;;27.32;44.52;101569.59;5171801;27;20035;-79
2023/06/09 10:12:19;;;;;;;0.35;0.35;;;;;;;27.37;44.28;101559.19;5163725;27;20027;-79
2023/06/09 10:14:48;;;;;;;0.22;0.22;;;;;;;27.46;44.84;101563.06;5159250;27;20027;-78
2023/06/09 10:17:17;;;;;;;0.10;0.10;;;;;;;27.54;44.58;101554.28;5161724;27;20480;-79
2023/06/09 10:19:43;;;;;;;0.75;0.57;;;;;;;27.63;42.96;101556.28;5162453;27;20094;-80
2023/06/09 10:22:10;;;;;;;1.15;1.15;;;;;;;27.71;44.30;101561.94;5153652;27;20034;-79
2023/06/09 10:24:38;;;;;;;0.10;0.10;;;;;;;27.80;45.12;101548.56;5161170;27;20391;-78
2023/06/09 10:27:06;;;;;;;0.73;0.73;;;;;;;27.98;43.74;101557.94;5162488;27;20067;-78
2023/06/09 10:29:33;;;;;;;0.10;0.10;;;;;;;28.10;43.65;101556.06;5155915;27;20034;-78
2023/06/09 10:32:00;;;;;;;0.75;0.75;;;;;;;28.15;43.12;101547.53;5157563;27;20201;-79
2023/06/09 10:34:27;;;;;;;0.38;0.38;;;;;;;28.24;41.87;101546.75;5166184;27;20050;-78
2023/06/09 10:36:54;;;;;;;0.17;0.17;;;;;;;28.35;43.14;101546.72;5165954;27;20033;-78
2023/06/09 10:39:25;;;;;;;0.40;0.30;;;;;;;28.49;43.22;101550.13;5157935;27;20484;-77
2023/06/09 10:44:58;;;;;;;0.55;0.55;;;;;;;28.81;40.92;101543.78;5071501;28;20383;-77
2023/06/09 10:47:45;;;;;;;0.88;0.68;;;;;;;28.85;41.19;101540.66;5063834;28;20490;-76
2023/06/09 10:53:13;;;;;;;0.63;0.63;;;;;;;29.03;42.24;101527.25;5106355;27;20415;-79
2023/06/09 10:55:39;;;;;;;1.00;0.57;;;;;;;29.07;40.01;101527.00;5116415;28;20044;-80
2023/06/09 10:58:40;;;;;;;1.25;1.02;;;;;;;29.34;40.34;101524.56;5104939;28;20104;-80
2023/06/09 11:01:07;;;;;;;0.83;0.83;;;;;;;29.41;40.70;101529.47;5096507;28;20096;-80
2023/06/09 11:03:33;;;;;;;0.28;0.28;;;;;;;29.52;40.09;101515.72;5094914;28;20024;-80
2023/06/09 11:06:01;;;;;;;0.30;0.30;;;;;;;29.53;39.45;101506.53;5092933;28;20032;-80
2023/06/09 11:08:47;;;;;;;0.30;0.30;;;;;;;29.63;39.59;101509.31;5094857;28;20371;-80
2023/06/09 11:11:15;;;;;;;0.10;0.10;;;;;;;29.69;37.02;101495.94;5097109;28;20054;-80
2023/06/09 11:13:42;;;;;;;0.65;0.65;;;;;;;29.77;38.03;101497.09;5095273;28;20089;-80
2023/06/09 11:16:08;;;;;;;0.30;0.30;;;;;;;29.85;38.62;101495.41;5093087;28;20017;-80
2023/06/09 11:18:35;;;;;;;0.30;0.30;;;;;;;29.92;38.33;101490.28;5092505;28;20043;-79
2023/06/09 11:21:09;;;;;;;0.40;0.40;;;;;;;30.01;39.23;101494.88;5093342;28;20028;-80
2023/06/09 11:23:57;;;;;;;0.22;0.22;;;;;;;30.13;40.11;101487.41;5101237;28;20078;-79
2023/06/09 11:26:24;;;;;;;0.15;0.15;;;;;;;29.99;38.68;101491.41;5100096;28;20508;-80
2023/06/09 11:28:50;;;;;;;0.38;0.38;;;;;;;30.13;41.18;101494.72;5094757;28;20033;-80
2023/06/09 11:31:17;;;;;;;0.10;0.10;;;;;;;30.22;38.55;101480.22;5095124;28;20760;-80
2023/06/09 11:33:45;;;;;;;0.20;0.20;;;;;;;30.37;40.85;101483.38;5110546;28;20027;-80
2023/06/09 11:36:18;;;;;;;0.20;0.20;;;;;;;30.47;41.16;101475.16;5110785;28;20028;-80
2023/06/09 11:38:45;;;;;;;0.20;0.20;;;;;;;30.51;40.48;101479.34;5093431;28;20020;-80
2023/06/09 11:41:12;;;;;;;0.35;0.35;;;;;;;30.60;40.03;101486.66;5094572;28;20013;-81